sensor_id;sensor_type;location;lat;lon;timestamp;P1;durP1;ratioP1;P2;durP2;ratioP2
71108;SDS011;59614;51.012;-1.648;2024-03-02T00:00:14;10.93;;;2.03;;
71108;SDS011;59614;51.012;-1.648;2024-03-02T00:02:42;15.63;;;2.40;;
71108;SDS011;59614;51.012;-1.648;2024-03-02T00:05:12;15.02;;;2.00;;
71108;SDS011;59614;51.012;-1.648;2024-03-02T00:07:43;11.98;;;2.05;;
71108;SDS011;59614;51.012;-1.648;2024-03-02T00:10:10;9.52;;;2.17;;
71108;SDS011;59614;51.012;-1.648;2024-03-02T00:12:39;9.70;;;2.15;;
71108;SDS011;59614;51.012;-1.648;2024-03-02T00:15:33;6.70;;;1.35;;
71108;SDS011;59614;51.012;-1.648;2024-03-02T00:17:59;9.55;;;2.05;;
71108;SDS011;59614;51.012;-1.648;2024-03-02T00:20:25;7.53;;;1.80;;
71108;SDS011;59614;51.012;-1.648;2024-03-02T00:23:03;14.40;;;2.10;;
71108;SDS011;59614;51.012;-1.648;2024-03-02T00:25:43;23.85;;;2.40;;
71108;SDS011;59614;51.012;-1.648;2024-03-02T00:30:52;6.70;;;1.17;;
71108;SDS011;59614;51.012;-1.648;2024-03-02T00:33:36;9.65;;;2.47;;
71108;SDS011;59614;51.012;-1.648;2024-03-02T00:36:05;8.35;;;1.33;;
71108;SDS011;59614;51.012;-1.648;2024-03-02T00:38:31;5.15;;;1.48;;
71108;SDS011;59614;51.012;-1.648;2024-03-02T00:41:04;8.43;;;1.80;;
71108;SDS011;59614;51.012;-1.648;2024-03-02T00:43:42;8.93;;;1.75;;
71108;SDS011;59614;51.012;-1.648;2024-03-02T00:46:12;10.45;;;2.00;;
71108;SDS011;59614;51.012;-1.648;2024-03-02T00:48:59;7.72;;;1.83;;
71108;SDS011;59614;51.012;-1.648;2024-03-02T00:51:26;8.95;;;2.13;;
71108;SDS011;59614;51.012;-1.648;2024-03-02T00:53:53;13.57;;;2.27;;
71108;SDS011;59614;51.012;-1.648;2024-03-02T00:56:25;17.98;;;2.47;;
71108;SDS011;59614;51.012;-1.648;2024-03-02T00:58:51;8.57;;;1.75;;
71108;SDS011;59614;51.012;-1.648;2024-03-02T01:01:18;17.58;;;1.83;;
71108;SDS011;59614;51.012;-1.648;2024-03-02T01:03:44;26.13;;;2.33;;
71108;SDS011;59614;51.012;-1.648;2024-03-02T01:06:10;11.27;;;2.00;;
71108;SDS011;59614;51.012;-1.648;2024-03-02T01:08:36;13.52;;;2.55;;
71108;SDS011;59614;51.012;-1.648;2024-03-02T01:11:02;19.83;;;1.75;;
71108;SDS011;59614;51.012;-1.648;2024-03-02T01:13:28;12.40;;;2.25;;
71108;SDS011;59614;51.012;-1.648;2024-03-02T01:15:54;12.95;;;2.20;;
71108;SDS011;59614;51.012;-1.648;2024-03-02T01:18:19;5.85;;;1.27;;
71108;SDS011;59614;51.012;-1.648;2024-03-02T01:20:45;5.47;;;1.75;;
71108;SDS011;59614;51.012;-1.648;2024-03-02T01:23:10;8.32;;;1.13;;
71108;SDS011;59614;51.012;-1.648;2024-03-02T01:25:36;8.15;;;2.00;;
71108;SDS011;59614;51.012;-1.648;2024-03-02T01:28:01;7.47;;;1.60;;
71108;SDS011;59614;51.012;-1.648;2024-03-02T01:30:27;7.97;;;1.55;;
71108;SDS011;59614;51.012;-1.648;2024-03-02T01:32:52;13.25;;;1.67;;
71108;SDS011;59614;51.012;-1.648;2024-03-02T01:35:17;7.15;;;1.15;;
71108;SDS011;59614;51.012;-1.648;2024-03-02T01:37:43;9.15;;;1.20;;
71108;SDS011;59614;51.012;-1.648;2024-03-02T01:40:08;5.25;;;1.00;;
71108;SDS011;59614;51.012;-1.648;2024-03-02T01:42:35;7.25;;;1.42;;
71108;SDS011;59614;51.012;-1.648;2024-03-02T01:45:02;2.72;;;0.70;;
71108;SDS011;59614;51.012;-1.648;2024-03-02T01:47:28;5.28;;;1.35;;
71108;SDS011;59614;51.012;-1.648;2024-03-02T01:49:54;3.85;;;1.10;;
71108;SDS011;59614;51.012;-1.648;2024-03-02T01:52:19;6.75;;;0.80;;
71108;SDS011;59614;51.012;-1.648;2024-03-02T01:54:45;5.20;;;0.60;;
71108;SDS011;59614;51.012;-1.648;2024-03-02T01:57:10;3.42;;;0.88;;
71108;SDS011;59614;51.012;-1.648;2024-03-02T01:59:35;7.53;;;1.10;;
71108;SDS011;59614;51.012;-1.648;2024-03-02T02:02:01;7.13;;;1.77;;
71108;SDS011;59614;51.012;-1.648;2024-03-02T02:04:26;6.65;;;1.40;;
71108;SDS011;59614;51.012;-1.648;2024-03-02T02:06:53;6.72;;;1.08;;
71108;SDS011;59614;51.012;-1.648;2024-03-02T02:09:19;6.00;;;1.85;;
71108;SDS011;59614;51.012;-1.648;2024-03-02T02:11:44;6.60;;;1.55;;
71108;SDS011;59614;51.012;-1.648;2024-03-02T02:14:09;6.20;;;1.52;;
71108;SDS011;59614;51.012;-1.648;2024-03-02T02:16:35;5.82;;;1.20;;
71108;SDS011;59614;51.012;-1.648;2024-03-02T02:19:01;5.63;;;1.52;;
71108;SDS011;59614;51.012;-1.648;2024-03-02T02:21:26;5.93;;;1.50;;
71108;SDS011;59614;51.012;-1.648;2024-03-02T02:23:52;11.98;;;1.13;;
71108;SDS011;59614;51.012;-1.648;2024-03-02T02:26:17;9.02;;;1.52;;
71108;SDS011;59614;51.012;-1.648;2024-03-02T02:28:43;3.85;;;0.98;;
71108;SDS011;59614;51.012;-1.648;2024-03-02T02:31:12;9.20;;;1.85;;
71108;SDS011;59614;51.012;-1.648;2024-03-02T02:33:41;6.57;;;1.38;;
71108;SDS011;59614;51.012;-1.648;2024-03-02T02:36:08;8.35;;;1.50;;
71108;SDS011;59614;51.012;-1.648;2024-03-02T02:38:36;6.20;;;1.20;;
71108;SDS011;59614;51.012;-1.648;2024-03-02T02:41:05;8.45;;;1.27;;
71108;SDS011;59614;51.012;-1.648;2024-03-02T02:43:30;11.02;;;1.65;;
71108;SDS011;59614;51.012;-1.648;2024-03-02T02:45:56;8.23;;;1.52;;
71108;SDS011;59614;51.012;-1.648;2024-03-02T02:48:21;7.88;;;1.45;;
71108;SDS011;59614;51.012;-1.648;2024-03-02T02:50:46;15.73;;;2.42;;
71108;SDS011;59614;51.012;-1.648;2024-03-02T02:53:12;14.60;;;2.00;;
71108;SDS011;59614;51.012;-1.648;2024-03-02T02:55:39;12.20;;;1.50;;
71108;SDS011;59614;51.012;-1.648;2024-03-02T02:58:05;9.48;;;2.15;;
71108;SDS011;59614;51.012;-1.648;2024-03-02T03:00:37;12.05;;;2.17;;
71108;SDS011;59614;51.012;-1.648;2024-03-02T03:03:02;15.00;;;2.40;;
71108;SDS011;59614;51.012;-1.648;2024-03-02T03:05:28;13.15;;;2.78;;
71108;SDS011;59614;51.012;-1.648;2024-03-02T03:07:53;16.83;;;2.92;;
71108;SDS011;59614;51.012;-1.648;2024-03-02T03:10:18;18.88;;;2.92;;
71108;SDS011;59614;51.012;-1.648;2024-03-02T03:12:47;22.00;;;3.05;;
71108;SDS011;59614;51.012;-1.648;2024-03-02T03:15:12;23.75;;;3.47;;
71108;SDS011;59614;51.012;-1.648;2024-03-02T03:17:38;27.35;;;3.05;;
71108;SDS011;59614;51.012;-1.648;2024-03-02T03:20:03;26.58;;;3.58;;
71108;SDS011;59614;51.012;-1.648;2024-03-02T03:22:30;31.13;;;4.00;;
71108;SDS011;59614;51.012;-1.648;2024-03-02T03:25:00;22.50;;;3.47;;
71108;SDS011;59614;51.012;-1.648;2024-03-02T03:27:25;27.77;;;4.13;;
71108;SDS011;59614;51.012;-1.648;2024-03-02T03:29:51;38.88;;;4.57;;
71108;SDS011;59614;51.012;-1.648;2024-03-02T03:32:17;27.95;;;3.80;;
71108;SDS011;59614;51.012;-1.648;2024-03-02T03:34:42;30.15;;;4.00;;
71108;SDS011;59614;51.012;-1.648;2024-03-02T03:37:07;22.88;;;3.13;;
71108;SDS011;59614;51.012;-1.648;2024-03-02T03:39:33;34.95;;;5.07;;
71108;SDS011;59614;51.012;-1.648;2024-03-02T03:41:59;28.52;;;4.70;;
71108;SDS011;59614;51.012;-1.648;2024-03-02T03:44:24;21.60;;;3.90;;
71108;SDS011;59614;51.012;-1.648;2024-03-02T03:46:50;33.88;;;3.65;;
71108;SDS011;59614;51.012;-1.648;2024-03-02T03:49:15;15.13;;;3.08;;
71108;SDS011;59614;51.012;-1.648;2024-03-02T03:51:40;16.67;;;2.65;;
71108;SDS011;59614;51.012;-1.648;2024-03-02T03:54:06;13.77;;;2.80;;
71108;SDS011;59614;51.012;-1.648;2024-03-02T03:56:31;17.33;;;2.80;;
71108;SDS011;59614;51.012;-1.648;2024-03-02T03:58:56;13.27;;;2.65;;
71108;SDS011;59614;51.012;-1.648;2024-03-02T04:01:22;15.70;;;2.55;;
71108;SDS011;59614;51.012;-1.648;2024-03-02T04:03:48;19.88;;;2.75;;
71108;SDS011;59614;51.012;-1.648;2024-03-02T04:06:13;16.73;;;3.17;;
71108;SDS011;59614;51.012;-1.648;2024-03-02T04:08:39;17.00;;;2.55;;
71108;SDS011;59614;51.012;-1.648;2024-03-02T04:11:06;21.23;;;2.83;;
71108;SDS011;59614;51.012;-1.648;2024-03-02T04:13:32;26.67;;;3.53;;
71108;SDS011;59614;51.012;-1.648;2024-03-02T04:15:58;16.38;;;3.00;;
71108;SDS011;59614;51.012;-1.648;2024-03-02T04:18:23;23.77;;;2.67;;
71108;SDS011;59614;51.012;-1.648;2024-03-02T04:20:48;23.33;;;3.58;;
71108;SDS011;59614;51.012;-1.648;2024-03-02T04:23:14;16.98;;;2.80;;
71108;SDS011;59614;51.012;-1.648;2024-03-02T04:25:39;17.77;;;3.03;;
71108;SDS011;59614;51.012;-1.648;2024-03-02T04:28:04;16.20;;;2.35;;
71108;SDS011;59614;51.012;-1.648;2024-03-02T04:30:30;15.18;;;2.53;;
71108;SDS011;59614;51.012;-1.648;2024-03-02T04:32:55;15.82;;;2.45;;
71108;SDS011;59614;51.012;-1.648;2024-03-02T04:35:20;14.93;;;2.35;;
71108;SDS011;59614;51.012;-1.648;2024-03-02T04:37:46;9.30;;;2.03;;
71108;SDS011;59614;51.012;-1.648;2024-03-02T04:40:11;14.48;;;2.20;;
71108;SDS011;59614;51.012;-1.648;2024-03-02T04:42:37;13.35;;;1.92;;
71108;SDS011;59614;51.012;-1.648;2024-03-02T04:45:02;21.05;;;3.10;;
71108;SDS011;59614;51.012;-1.648;2024-03-02T04:47:28;15.52;;;2.35;;
71108;SDS011;59614;51.012;-1.648;2024-03-02T04:49:53;14.05;;;2.25;;
71108;SDS011;59614;51.012;-1.648;2024-03-02T04:52:18;17.10;;;2.50;;
71108;SDS011;59614;51.012;-1.648;2024-03-02T04:54:44;12.73;;;1.92;;
71108;SDS011;59614;51.012;-1.648;2024-03-02T04:57:28;12.82;;;1.42;;
71108;SDS011;59614;51.012;-1.648;2024-03-02T04:59:53;14.60;;;1.75;;
71108;SDS011;59614;51.012;-1.648;2024-03-02T05:02:18;9.30;;;1.80;;
71108;SDS011;59614;51.012;-1.648;2024-03-02T05:04:43;9.55;;;2.10;;
71108;SDS011;59614;51.012;-1.648;2024-03-02T05:07:09;9.05;;;1.63;;
71108;SDS011;59614;51.012;-1.648;2024-03-02T05:09:35;7.65;;;1.55;;
71108;SDS011;59614;51.012;-1.648;2024-03-02T05:12:00;9.32;;;1.70;;
71108;SDS011;59614;51.012;-1.648;2024-03-02T05:14:45;10.15;;;1.58;;
71108;SDS011;59614;51.012;-1.648;2024-03-02T05:17:10;8.75;;;2.33;;
71108;SDS011;59614;51.012;-1.648;2024-03-02T05:19:36;9.38;;;1.55;;
71108;SDS011;59614;51.012;-1.648;2024-03-02T05:22:01;8.20;;;1.80;;
71108;SDS011;59614;51.012;-1.648;2024-03-02T05:24:28;7.53;;;1.50;;
71108;SDS011;59614;51.012;-1.648;2024-03-02T05:26:53;4.30;;;1.35;;
71108;SDS011;59614;51.012;-1.648;2024-03-02T05:29:19;3.72;;;1.60;;
71108;SDS011;59614;51.012;-1.648;2024-03-02T05:31:44;4.45;;;1.40;;
71108;SDS011;59614;51.012;-1.648;2024-03-02T05:34:10;3.15;;;1.40;;
71108;SDS011;59614;51.012;-1.648;2024-03-02T05:36:35;2.95;;;1.23;;
71108;SDS011;59614;51.012;-1.648;2024-03-02T05:39:01;2.78;;;1.10;;
71108;SDS011;59614;51.012;-1.648;2024-03-02T05:41:29;2.50;;;1.10;;
71108;SDS011;59614;51.012;-1.648;2024-03-02T05:43:55;1.88;;;1.08;;
71108;SDS011;59614;51.012;-1.648;2024-03-02T05:46:20;2.60;;;1.35;;
71108;SDS011;59614;51.012;-1.648;2024-03-02T05:48:45;7.28;;;1.60;;
71108;SDS011;59614;51.012;-1.648;2024-03-02T05:51:11;1.50;;;1.30;;
71108;SDS011;59614;51.012;-1.648;2024-03-02T05:53:36;2.53;;;1.38;;
71108;SDS011;59614;51.012;-1.648;2024-03-02T05:56:03;4.15;;;1.60;;
71108;SDS011;59614;51.012;-1.648;2024-03-02T05:58:29;2.88;;;1.40;;
71108;SDS011;59614;51.012;-1.648;2024-03-02T06:01:08;2.92;;;1.45;;
71108;SDS011;59614;51.012;-1.648;2024-03-02T06:03:33;2.75;;;1.60;;
71108;SDS011;59614;51.012;-1.648;2024-03-02T06:05:59;2.17;;;1.45;;
71108;SDS011;59614;51.012;-1.648;2024-03-02T06:08:24;2.67;;;1.70;;
71108;SDS011;59614;51.012;-1.648;2024-03-02T06:10:50;5.10;;;1.40;;
71108;SDS011;59614;51.012;-1.648;2024-03-02T06:13:15;4.00;;;1.50;;
71108;SDS011;59614;51.012;-1.648;2024-03-02T06:15:40;2.40;;;1.70;;
71108;SDS011;59614;51.012;-1.648;2024-03-02T06:18:06;2.60;;;1.70;;
71108;SDS011;59614;51.012;-1.648;2024-03-02T06:20:32;3.25;;;1.63;;
71108;SDS011;59614;51.012;-1.648;2024-03-02T06:22:58;2.90;;;1.67;;
71108;SDS011;59614;51.012;-1.648;2024-03-02T06:25:23;3.30;;;1.83;;
71108;SDS011;59614;51.012;-1.648;2024-03-02T06:27:48;6.60;;;1.90;;
71108;SDS011;59614;51.012;-1.648;2024-03-02T06:30:14;3.88;;;1.90;;
71108;SDS011;59614;51.012;-1.648;2024-03-02T06:32:39;2.90;;;1.80;;
71108;SDS011;59614;51.012;-1.648;2024-03-02T06:35:05;5.22;;;1.63;;
71108;SDS011;59614;51.012;-1.648;2024-03-02T06:37:32;1.83;;;1.30;;
71108;SDS011;59614;51.012;-1.648;2024-03-02T06:39:57;2.00;;;1.45;;
71108;SDS011;59614;51.012;-1.648;2024-03-02T06:42:23;2.03;;;1.17;;
71108;SDS011;59614;51.012;-1.648;2024-03-02T06:44:49;1.77;;;1.20;;
71108;SDS011;59614;51.012;-1.648;2024-03-02T06:47:15;1.70;;;1.23;;
71108;SDS011;59614;51.012;-1.648;2024-03-02T06:49:41;0.93;;;0.90;;
71108;SDS011;59614;51.012;-1.648;2024-03-02T06:52:07;1.45;;;1.00;;
71108;SDS011;59614;51.012;-1.648;2024-03-02T06:54:33;1.20;;;1.08;;
71108;SDS011;59614;51.012;-1.648;2024-03-02T06:56:59;1.73;;;1.10;;
71108;SDS011;59614;51.012;-1.648;2024-03-02T06:59:25;8.93;;;3.30;;
71108;SDS011;59614;51.012;-1.648;2024-03-02T07:01:50;10.93;;;4.22;;
71108;SDS011;59614;51.012;-1.648;2024-03-02T07:04:15;5.95;;;2.63;;
71108;SDS011;59614;51.012;-1.648;2024-03-02T07:06:41;3.40;;;1.90;;
71108;SDS011;59614;51.012;-1.648;2024-03-02T07:09:06;2.22;;;1.40;;
71108;SDS011;59614;51.012;-1.648;2024-03-02T07:11:35;2.95;;;1.52;;
71108;SDS011;59614;51.012;-1.648;2024-03-02T07:14:01;8.15;;;1.50;;
71108;SDS011;59614;51.012;-1.648;2024-03-02T07:16:26;7.70;;;1.50;;
71108;SDS011;59614;51.012;-1.648;2024-03-02T07:18:59;2.28;;;1.50;;
71108;SDS011;59614;51.012;-1.648;2024-03-02T07:21:26;4.28;;;1.42;;
71108;SDS011;59614;51.012;-1.648;2024-03-02T07:23:52;2.20;;;1.38;;
71108;SDS011;59614;51.012;-1.648;2024-03-02T07:26:18;2.03;;;1.30;;
71108;SDS011;59614;51.012;-1.648;2024-03-02T07:28:47;2.15;;;1.10;;
71108;SDS011;59614;51.012;-1.648;2024-03-02T07:31:14;2.53;;;1.58;;
71108;SDS011;59614;51.012;-1.648;2024-03-02T07:33:40;2.13;;;1.33;;
71108;SDS011;59614;51.012;-1.648;2024-03-02T07:36:05;2.65;;;1.70;;
71108;SDS011;59614;51.012;-1.648;2024-03-02T07:38:32;2.85;;;1.70;;
71108;SDS011;59614;51.012;-1.648;2024-03-02T07:40:59;3.92;;;1.55;;
71108;SDS011;59614;51.012;-1.648;2024-03-02T07:43:25;2.67;;;1.63;;
71108;SDS011;59614;51.012;-1.648;2024-03-02T07:45:51;5.63;;;1.63;;
71108;SDS011;59614;51.012;-1.648;2024-03-02T07:48:16;2.55;;;1.67;;
71108;SDS011;59614;51.012;-1.648;2024-03-02T07:50:42;2.80;;;1.70;;
71108;SDS011;59614;51.012;-1.648;2024-03-02T07:53:08;3.47;;;2.10;;
71108;SDS011;59614;51.012;-1.648;2024-03-02T07:55:34;3.97;;;2.20;;
71108;SDS011;59614;51.012;-1.648;2024-03-02T07:58:02;5.60;;;2.17;;
71108;SDS011;59614;51.012;-1.648;2024-03-02T08:00:28;5.10;;;2.50;;
71108;SDS011;59614;51.012;-1.648;2024-03-02T08:02:53;5.45;;;2.70;;
71108;SDS011;59614;51.012;-1.648;2024-03-02T08:05:19;6.50;;;3.15;;
71108;SDS011;59614;51.012;-1.648;2024-03-02T08:07:45;5.85;;;2.92;;
71108;SDS011;59614;51.012;-1.648;2024-03-02T08:10:11;4.75;;;2.45;;
71108;SDS011;59614;51.012;-1.648;2024-03-02T08:12:37;5.15;;;2.65;;
71108;SDS011;59614;51.012;-1.648;2024-03-02T08:15:02;7.00;;;3.00;;
71108;SDS011;59614;51.012;-1.648;2024-03-02T08:17:29;5.53;;;3.00;;
71108;SDS011;59614;51.012;-1.648;2024-03-02T08:19:54;6.63;;;3.45;;
71108;SDS011;59614;51.012;-1.648;2024-03-02T08:22:20;7.47;;;3.25;;
71108;SDS011;59614;51.012;-1.648;2024-03-02T08:24:45;9.05;;;3.15;;
71108;SDS011;59614;51.012;-1.648;2024-03-02T08:27:11;5.55;;;3.05;;
71108;SDS011;59614;51.012;-1.648;2024-03-02T08:29:37;6.15;;;3.17;;
71108;SDS011;59614;51.012;-1.648;2024-03-02T08:32:02;4.97;;;2.90;;
71108;SDS011;59614;51.012;-1.648;2024-03-02T08:34:28;6.43;;;3.40;;
71108;SDS011;59614;51.012;-1.648;2024-03-02T08:36:53;5.32;;;2.97;;
71108;SDS011;59614;51.012;-1.648;2024-03-02T08:39:18;5.32;;;2.92;;
71108;SDS011;59614;51.012;-1.648;2024-03-02T08:41:44;6.20;;;3.35;;
71108;SDS011;59614;51.012;-1.648;2024-03-02T08:44:11;6.32;;;3.00;;
71108;SDS011;59614;51.012;-1.648;2024-03-02T08:46:37;5.60;;;3.10;;
71108;SDS011;59614;51.012;-1.648;2024-03-02T08:49:04;5.35;;;2.90;;
71108;SDS011;59614;51.012;-1.648;2024-03-02T08:51:29;5.82;;;3.10;;
71108;SDS011;59614;51.012;-1.648;2024-03-02T08:53:55;6.20;;;3.30;;
71108;SDS011;59614;51.012;-1.648;2024-03-02T08:56:20;7.88;;;3.03;;
71108;SDS011;59614;51.012;-1.648;2024-03-02T08:58:46;5.57;;;3.20;;
71108;SDS011;59614;51.012;-1.648;2024-03-02T09:01:12;5.65;;;3.25;;
71108;SDS011;59614;51.012;-1.648;2024-03-02T09:03:37;6.10;;;3.33;;
71108;SDS011;59614;51.012;-1.648;2024-03-02T09:06:03;9.23;;;3.90;;
71108;SDS011;59614;51.012;-1.648;2024-03-02T09:08:28;6.32;;;3.60;;
71108;SDS011;59614;51.012;-1.648;2024-03-02T09:10:54;10.30;;;3.63;;
71108;SDS011;59614;51.012;-1.648;2024-03-02T09:13:20;5.65;;;3.30;;
71108;SDS011;59614;51.012;-1.648;2024-03-02T09:15:46;5.80;;;3.33;;
71108;SDS011;59614;51.012;-1.648;2024-03-02T09:18:11;7.10;;;3.53;;
71108;SDS011;59614;51.012;-1.648;2024-03-02T09:20:37;6.50;;;3.58;;
71108;SDS011;59614;51.012;-1.648;2024-03-02T09:23:02;5.75;;;3.40;;
71108;SDS011;59614;51.012;-1.648;2024-03-02T09:25:27;5.85;;;3.42;;
71108;SDS011;59614;51.012;-1.648;2024-03-02T09:27:53;6.90;;;4.25;;
71108;SDS011;59614;51.012;-1.648;2024-03-02T09:30:18;6.07;;;4.05;;
71108;SDS011;59614;51.012;-1.648;2024-03-02T09:32:43;10.48;;;4.07;;
71108;SDS011;59614;51.012;-1.648;2024-03-02T09:35:09;6.60;;;4.00;;
71108;SDS011;59614;51.012;-1.648;2024-03-02T09:37:34;7.00;;;3.72;;
71108;SDS011;59614;51.012;-1.648;2024-03-02T09:40:00;7.22;;;4.03;;
71108;SDS011;59614;51.012;-1.648;2024-03-02T09:42:26;6.28;;;3.92;;
71108;SDS011;59614;51.012;-1.648;2024-03-02T09:44:52;7.15;;;3.92;;
71108;SDS011;59614;51.012;-1.648;2024-03-02T09:47:18;6.50;;;3.78;;
71108;SDS011;59614;51.012;-1.648;2024-03-02T09:49:43;4.85;;;3.50;;
71108;SDS011;59614;51.012;-1.648;2024-03-02T09:52:09;6.47;;;3.85;;
71108;SDS011;59614;51.012;-1.648;2024-03-02T09:54:35;6.00;;;3.90;;
71108;SDS011;59614;51.012;-1.648;2024-03-02T09:57:01;5.88;;;3.65;;
71108;SDS011;59614;51.012;-1.648;2024-03-02T09:59:27;6.28;;;3.72;;
71108;SDS011;59614;51.012;-1.648;2024-03-02T10:02:00;7.95;;;3.70;;
71108;SDS011;59614;51.012;-1.648;2024-03-02T10:04:28;6.13;;;2.85;;
71108;SDS011;59614;51.012;-1.648;2024-03-02T10:07:37;7.03;;;3.10;;
71108;SDS011;59614;51.012;-1.648;2024-03-02T10:09:45;5.72;;;3.25;;
71108;SDS011;59614;51.012;-1.648;2024-03-02T10:12:12;4.75;;;3.20;;
71108;SDS011;59614;51.012;-1.648;2024-03-02T10:14:39;4.30;;;3.00;;
71108;SDS011;59614;51.012;-1.648;2024-03-02T10:17:06;4.68;;;2.80;;
71108;SDS011;59614;51.012;-1.648;2024-03-02T10:19:36;5.00;;;2.70;;
71108;SDS011;59614;51.012;-1.648;2024-03-02T10:22:02;5.43;;;2.72;;
71108;SDS011;59614;51.012;-1.648;2024-03-02T10:24:36;4.45;;;2.47;;
71108;SDS011;59614;51.012;-1.648;2024-03-02T10:27:02;3.95;;;2.47;;
71108;SDS011;59614;51.012;-1.648;2024-03-02T10:29:32;4.63;;;2.22;;
71108;SDS011;59614;51.012;-1.648;2024-03-02T10:31:57;4.32;;;2.20;;
71108;SDS011;59614;51.012;-1.648;2024-03-02T10:34:24;2.53;;;1.70;;
71108;SDS011;59614;51.012;-1.648;2024-03-02T10:36:50;3.05;;;1.90;;
71108;SDS011;59614;51.012;-1.648;2024-03-02T10:39:16;3.05;;;1.95;;
71108;SDS011;59614;51.012;-1.648;2024-03-02T10:41:42;4.22;;;1.85;;
71108;SDS011;59614;51.012;-1.648;2024-03-02T10:44:10;3.33;;;1.98;;
71108;SDS011;59614;51.012;-1.648;2024-03-02T10:46:37;3.38;;;1.63;;
71108;SDS011;59614;51.012;-1.648;2024-03-02T10:49:03;2.47;;;1.80;;
71108;SDS011;59614;51.012;-1.648;2024-03-02T10:51:30;5.40;;;2.50;;
71108;SDS011;59614;51.012;-1.648;2024-03-02T10:54:00;4.60;;;1.98;;
71108;SDS011;59614;51.012;-1.648;2024-03-02T11:01:43;4.20;;;2.10;;
71108;SDS011;59614;51.012;-1.648;2024-03-02T11:04:12;2.63;;;1.90;;
71108;SDS011;59614;51.012;-1.648;2024-03-02T11:06:40;4.97;;;2.15;;
71108;SDS011;59614;51.012;-1.648;2024-03-02T11:09:13;2.92;;;1.80;;
71108;SDS011;59614;51.012;-1.648;2024-03-02T11:11:40;3.58;;;2.03;;
71108;SDS011;59614;51.012;-1.648;2024-03-02T11:14:13;2.97;;;2.00;;
71108;SDS011;59614;51.012;-1.648;2024-03-02T11:16:41;3.05;;;2.15;;
71108;SDS011;59614;51.012;-1.648;2024-03-02T11:19:12;3.80;;;2.00;;
71108;SDS011;59614;51.012;-1.648;2024-03-02T11:21:38;2.55;;;1.80;;
71108;SDS011;59614;51.012;-1.648;2024-03-02T11:24:48;2.15;;;1.70;;
71108;SDS011;59614;51.012;-1.648;2024-03-02T11:26:58;2.42;;;1.90;;
71108;SDS011;59614;51.012;-1.648;2024-03-02T11:32:02;3.65;;;2.13;;
71108;SDS011;59614;51.012;-1.648;2024-03-02T11:34:32;3.25;;;2.20;;
71108;SDS011;59614;51.012;-1.648;2024-03-02T11:36:59;3.95;;;2.30;;
71108;SDS011;59614;51.012;-1.648;2024-03-02T11:39:26;3.70;;;2.30;;
71108;SDS011;59614;51.012;-1.648;2024-03-02T11:41:52;3.40;;;2.50;;
71108;SDS011;59614;51.012;-1.648;2024-03-02T11:44:17;4.72;;;2.60;;
71108;SDS011;59614;51.012;-1.648;2024-03-02T11:47:00;4.38;;;2.55;;
71108;SDS011;59614;51.012;-1.648;2024-03-02T11:49:38;4.82;;;3.10;;
71108;SDS011;59614;51.012;-1.648;2024-03-02T11:52:06;4.07;;;2.47;;
71108;SDS011;59614;51.012;-1.648;2024-03-02T11:54:32;4.57;;;2.30;;
71108;SDS011;59614;51.012;-1.648;2024-03-02T11:57:02;5.13;;;2.40;;
71108;SDS011;59614;51.012;-1.648;2024-03-02T11:59:31;3.72;;;2.55;;
71108;SDS011;59614;51.012;-1.648;2024-03-02T12:01:57;6.97;;;2.60;;
71108;SDS011;59614;51.012;-1.648;2024-03-02T12:04:23;5.25;;;2.67;;
71108;SDS011;59614;51.012;-1.648;2024-03-02T12:06:56;6.38;;;3.70;;
71108;SDS011;59614;51.012;-1.648;2024-03-02T12:09:24;4.90;;;2.50;;
71108;SDS011;59614;51.012;-1.648;2024-03-02T12:12:00;3.45;;;2.55;;
71108;SDS011;59614;51.012;-1.648;2024-03-02T12:14:30;4.72;;;2.15;;
71108;SDS011;59614;51.012;-1.648;2024-03-02T12:16:56;4.55;;;2.25;;
71108;SDS011;59614;51.012;-1.648;2024-03-02T12:19:23;2.90;;;2.20;;
71108;SDS011;59614;51.012;-1.648;2024-03-02T12:21:49;8.07;;;3.38;;
71108;SDS011;59614;51.012;-1.648;2024-03-02T12:24:14;3.10;;;1.90;;
71108;SDS011;59614;51.012;-1.648;2024-03-02T12:26:40;3.40;;;2.25;;
71108;SDS011;59614;51.012;-1.648;2024-03-02T12:29:06;2.50;;;1.90;;
71108;SDS011;59614;51.012;-1.648;2024-03-02T12:31:32;2.55;;;1.70;;
71108;SDS011;59614;51.012;-1.648;2024-03-02T12:33:57;2.47;;;1.88;;
71108;SDS011;59614;51.012;-1.648;2024-03-02T12:36:23;2.67;;;1.83;;
71108;SDS011;59614;51.012;-1.648;2024-03-02T12:38:52;2.53;;;1.90;;
71108;SDS011;59614;51.012;-1.648;2024-03-02T12:41:18;4.30;;;2.13;;
71108;SDS011;59614;51.012;-1.648;2024-03-02T12:43:43;5.38;;;2.80;;
71108;SDS011;59614;51.012;-1.648;2024-03-02T12:46:08;4.75;;;3.08;;
71108;SDS011;59614;51.012;-1.648;2024-03-02T12:48:34;5.45;;;3.13;;
71108;SDS011;59614;51.012;-1.648;2024-03-02T12:51:01;6.38;;;3.50;;
71108;SDS011;59614;51.012;-1.648;2024-03-02T12:53:26;5.60;;;3.35;;
71108;SDS011;59614;51.012;-1.648;2024-03-02T12:55:52;6.57;;;3.20;;
71108;SDS011;59614;51.012;-1.648;2024-03-02T12:58:21;6.95;;;3.38;;
71108;SDS011;59614;51.012;-1.648;2024-03-02T13:00:47;5.35;;;3.33;;
71108;SDS011;59614;51.012;-1.648;2024-03-02T13:03:13;3.85;;;2.88;;
71108;SDS011;59614;51.012;-1.648;2024-03-02T13:05:39;4.18;;;2.80;;
71108;SDS011;59614;51.012;-1.648;2024-03-02T13:08:04;4.72;;;2.83;;
71108;SDS011;59614;51.012;-1.648;2024-03-02T13:10:32;4.60;;;3.30;;
71108;SDS011;59614;51.012;-1.648;2024-03-02T13:12:58;4.80;;;3.20;;
71108;SDS011;59614;51.012;-1.648;2024-03-02T13:15:23;6.90;;;3.38;;
71108;SDS011;59614;51.012;-1.648;2024-03-02T13:17:50;4.72;;;3.58;;
71108;SDS011;59614;51.012;-1.648;2024-03-02T13:20:16;5.82;;;3.90;;
71108;SDS011;59614;51.012;-1.648;2024-03-02T13:22:43;6.53;;;3.67;;
71108;SDS011;59614;51.012;-1.648;2024-03-02T13:25:08;4.72;;;3.80;;
71108;SDS011;59614;51.012;-1.648;2024-03-02T13:27:35;10.35;;;4.20;;
71108;SDS011;59614;51.012;-1.648;2024-03-02T13:30:01;4.65;;;3.35;;
71108;SDS011;59614;51.012;-1.648;2024-03-02T13:32:27;7.03;;;3.70;;
71108;SDS011;59614;51.012;-1.648;2024-03-02T13:34:53;5.53;;;3.88;;
71108;SDS011;59614;51.012;-1.648;2024-03-02T13:37:19;6.43;;;3.30;;
71108;SDS011;59614;51.012;-1.648;2024-03-02T13:39:47;4.63;;;3.40;;
71108;SDS011;59614;51.012;-1.648;2024-03-02T13:42:13;4.45;;;3.20;;
71108;SDS011;59614;51.012;-1.648;2024-03-02T13:44:40;5.07;;;3.40;;
71108;SDS011;59614;51.012;-1.648;2024-03-02T13:47:06;5.40;;;3.10;;
71108;SDS011;59614;51.012;-1.648;2024-03-02T13:49:32;4.05;;;2.88;;
71108;SDS011;59614;51.012;-1.648;2024-03-02T13:52:06;4.88;;;2.80;;
71108;SDS011;59614;51.012;-1.648;2024-03-02T13:54:44;5.00;;;3.03;;
71108;SDS011;59614;51.012;-1.648;2024-03-02T13:57:10;6.35;;;2.10;;
71108;SDS011;59614;51.012;-1.648;2024-03-02T13:59:37;6.22;;;2.58;;
71108;SDS011;59614;51.012;-1.648;2024-03-02T14:02:03;3.20;;;2.10;;
71108;SDS011;59614;51.012;-1.648;2024-03-02T14:04:33;5.20;;;2.10;;
71108;SDS011;59614;51.012;-1.648;2024-03-02T14:06:59;3.80;;;2.28;;
71108;SDS011;59614;51.012;-1.648;2024-03-02T14:09:25;5.90;;;2.20;;
71108;SDS011;59614;51.012;-1.648;2024-03-02T14:11:52;3.00;;;1.85;;
71108;SDS011;59614;51.012;-1.648;2024-03-02T14:14:17;3.28;;;1.80;;
71108;SDS011;59614;51.012;-1.648;2024-03-02T14:16:43;5.90;;;1.77;;
71108;SDS011;59614;51.012;-1.648;2024-03-02T14:19:08;3.38;;;2.08;;
71108;SDS011;59614;51.012;-1.648;2024-03-02T14:21:34;2.80;;;1.80;;
71108;SDS011;59614;51.012;-1.648;2024-03-02T14:24:01;2.92;;;1.73;;
71108;SDS011;59614;51.012;-1.648;2024-03-02T14:26:26;4.65;;;2.00;;
71108;SDS011;59614;51.012;-1.648;2024-03-02T14:28:53;10.57;;;2.10;;
71108;SDS011;59614;51.012;-1.648;2024-03-02T14:31:18;4.88;;;1.98;;
71108;SDS011;59614;51.012;-1.648;2024-03-02T14:33:45;4.18;;;1.83;;
71108;SDS011;59614;51.012;-1.648;2024-03-02T14:36:10;4.00;;;1.70;;
71108;SDS011;59614;51.012;-1.648;2024-03-02T14:38:36;3.83;;;1.80;;